Time;durP1;ratioP1;P1;durP2;ratioP2;P2;SDS_P1;SDS_P2;PMS_P1;PMS_P2;Temp;Humidity;BMP_temperature;BMP_pressure;BME280_temperature;BME280_humidity;BME280_pressure;Samples;Min_cycle;Max_cycle;Signal;HPM_P1;HPM_P2
2024/01/07 00:03:48;;;;;;;7.82;2.47;;;;;;;20.37;100.00;100847.97;10594602;27;20043;-77
2024/01/07 00:09:12;;;;;;;7.75;2.35;;;;;;;20.35;100.00;100836.41;10601478;27;20387;-78
2024/01/07 00:14:36;;;;;;;9.50;2.40;;;;;;;20.43;100.00;100841.59;10582837;27;20169;-77
2024/01/07 00:19:58;;;;;;;5.22;2.35;;;;;;;20.29;100.00;100836.50;10574369;28;20035;-79
2024/01/07 00:25:21;;;;;;;9.55;2.78;;;;;;;20.37;100.00;100833.69;10601766;28;20100;-78
2024/01/07 00:30:45;;;;;;;14.27;3.10;;;;;;;20.21;100.00;100833.16;10585609;28;20090;-79
2024/01/07 00:36:08;;;;;;;6.60;2.53;;;;;;;20.33;100.00;100822.16;10600826;28;20383;-79
2024/01/07 00:41:31;;;;;;;9.35;2.50;;;;;;;20.10;100.00;100821.78;10601583;28;20051;-78
2024/01/07 00:46:55;;;;;;;7.57;2.88;;;;;;;19.94;100.00;100802.50;10601692;28;20074;-79
2024/01/07 00:52:17;;;;;;;8.60;2.70;;;;;;;19.63;100.00;100802.25;10583081;28;20047;-77
2024/01/07 00:57:40;;;;;;;7.25;2.67;;;;;;;19.56;100.00;100781.00;10552489;28;20056;-77
2024/01/07 01:03:04;;;;;;;9.88;2.25;;;;;;;19.35;100.00;100785.84;10608887;28;20483;-77
2024/01/07 01:08:27;;;;;;;9.25;2.53;;;;;;;19.15;100.00;100771.97;10608093;27;20062;-77
2024/01/07 01:13:49;;;;;;;10.07;2.60;;;;;;;19.13;100.00;100762.19;10585928;28;20043;-77
2024/01/07 01:19:13;;;;;;;15.13;3.63;;;;;;;18.97;100.00;100759.81;10581484;28;20039;-77
2024/01/07 01:24:35;;;;;;;10.80;2.65;;;;;;;18.81;100.00;100754.78;10587395;28;20119;-77
2024/01/07 01:29:58;;;;;;;9.60;2.63;;;;;;;18.65;100.00;100763.06;10586717;27;20074;-78
2024/01/07 01:35:21;;;;;;;9.82;2.63;;;;;;;18.61;100.00;100745.31;10606671;27;20058;-77
2024/01/07 01:40:44;;;;;;;10.45;2.95;;;;;;;18.46;100.00;100741.97;10593220;27;20395;-77
2024/01/07 01:46:06;;;;;;;12.85;2.78;;;;;;;18.37;100.00;100735.03;10596510;27;20100;-77
2024/01/07 01:51:31;;;;;;;11.55;3.22;;;;;;;18.43;100.00;100732.25;10591898;27;20039;-77
2024/01/07 01:56:54;;;;;;;12.60;3.00;;;;;;;18.48;100.00;100708.09;10604208;27;20047;-77
2024/01/07 02:02:16;;;;;;;10.63;2.97;;;;;;;18.37;100.00;100696.72;10590193;27;20053;-77
2024/01/07 02:07:40;;;;;;;10.68;2.78;;;;;;;18.16;100.00;100690.81;10604319;27;20510;-77
2024/01/07 02:13:03;;;;;;;8.38;3.28;;;;;;;18.08;100.00;100687.38;10601752;27;20510;-77
2024/01/07 02:18:26;;;;;;;14.25;3.78;;;;;;;18.03;100.00;100683.03;10584991;27;20578;-78
2024/01/07 02:23:51;;;;;;;13.35;3.60;;;;;;;18.05;100.00;100671.41;10590750;27;20047;-77
2024/01/07 02:29:15;;;;;;;10.75;3.10;;;;;;;18.02;100.00;100674.13;10599810;27;20083;-77
2024/01/07 02:34:38;;;;;;;13.30;3.80;;;;;;;18.02;100.00;100670.56;10601266;27;20530;-77
2024/01/07 02:40:00;;;;;;;13.73;3.38;;;;;;;17.95;100.00;100672.47;10604074;27;20046;-77
2024/01/07 02:45:24;;;;;;;12.77;3.97;;;;;;;18.07;100.00;100668.72;10600417;27;20043;-78
2024/01/07 02:50:47;;;;;;;13.48;3.40;;;;;;;18.05;100.00;100671.41;10612148;27;20063;-77
2024/01/07 02:56:10;;;;;;;13.40;3.53;;;;;;;18.24;100.00;100674.66;10586710;27;20478;-77
2024/01/07 03:01:39;;;;;;;10.48;3.13;;;;;;;18.11;100.00;100676.66;10590126;27;20051;-79
2024/01/07 03:07:02;;;;;;;15.30;4.38;;;;;;;18.02;100.00;100666.13;10601964;27;20070;-79
2024/01/07 03:12:24;;;;;;;16.38;3.42;;;;;;;18.06;100.00;100677.63;10608759;27;20062;-79
2024/01/07 03:17:48;;;;;;;9.88;3.55;;;;;;;18.18;100.00;100675.63;10614701;27;20084;-79
2024/01/07 03:23:11;;;;;;;10.43;3.30;;;;;;;17.99;100.00;100657.25;10588954;27;20503;-79
2024/01/07 03:28:33;;;;;;;13.25;3.50;;;;;;;17.78;100.00;100651.38;10565828;27;20497;-79
2024/01/07 03:33:57;;;;;;;13.50;3.03;;;;;;;17.85;100.00;100645.00;10602899;27;20054;-77
2024/01/07 03:39:20;;;;;;;15.95;3.55;;;;;;;18.07;100.00;100642.88;10602752;27;20050;-78
2024/01/07 03:44:42;;;;;;;14.43;3.60;;;;;;;18.06;100.00;100643.78;10600804;27;20042;-78
2024/01/07 03:50:07;;;;;;;20.42;3.78;;;;;;;17.98;100.00;100636.81;10595513;27;20043;-77
2024/01/07 03:55:29;;;;;;;15.35;3.70;;;;;;;18.16;100.00;100634.72;10625177;27;20134;-77
2024/01/07 04:00:52;;;;;;;16.08;4.38;;;;;;;18.27;100.00;100638.06;10590865;27;20095;-77
2024/01/07 04:06:16;;;;;;;18.05;6.78;;;;;;;18.10;100.00;100632.16;10601407;27;20067;-77
2024/01/07 04:11:41;;;;;;;13.00;3.22;;;;;;;18.18;100.00;100622.19;10586719;27;20115;-77
2024/01/07 04:17:05;;;;;;;16.30;4.15;;;;;;;18.44;100.00;100637.78;10598191;28;20475;-77
2024/01/07 04:22:29;;;;;;;11.85;3.85;;;;;;;18.56;100.00;100629.56;10587569;28;20059;-77
2024/01/07 04:27:51;;;;;;;14.65;2.50;;;;;;;19.09;100.00;100632.94;10584976;28;20055;-77
2024/01/07 04:33:13;;;;;;;18.02;3.40;;;;;;;19.36;100.00;100639.47;10588710;28;20058;-77
2024/01/07 04:38:37;;;;;;;9.95;3.40;;;;;;;19.55;100.00;100626.59;10626936;27;20062;-77
2024/01/07 04:44:00;;;;;;;27.27;4.68;;;;;;;19.52;100.00;100622.16;10593470;27;20051;-77
2024/01/07 04:49:22;;;;;;;16.55;3.45;;;;;;;19.48;100.00;100625.84;10599231;28;20437;-77
2024/01/07 04:54:46;;;;;;;18.27;3.85;;;;;;;19.49;100.00;100624.94;10598754;28;20059;-77
2024/01/07 05:00:09;;;;;;;17.48;3.90;;;;;;;19.47;100.00;100626.75;10600213;28;20051;-77
2024/01/07 05:05:31;;;;;;;10.05;3.25;;;;;;;19.53;100.00;100628.41;10590237;27;20043;-77
2024/01/07 05:10:56;;;;;;;17.35;3.80;;;;;;;19.53;100.00;100633.78;10583239;27;20050;-77
2024/01/07 05:16:21;;;;;;;13.18;2.83;;;;;;;19.62;100.00;100646.97;10605469;27;20489;-77
2024/01/07 05:21:44;;;;;;;14.82;2.90;;;;;;;19.59;100.00;100650.56;10592941;27;20054;-77
2024/01/07 05:27:08;;;;;;;7.53;2.40;;;;;;;19.65;100.00;100645.06;10596591;27;20047;-78
2024/01/07 05:32:30;;;;;;;21.20;3.30;;;;;;;19.55;100.00;100648.00;10598571;27;20050;-78
2024/01/07 05:37:53;;;;;;;14.43;2.85;;;;;;;19.60;100.00;100646.97;10606221;27;20054;-77
2024/01/07 05:43:17;;;;;;;17.83;3.20;;;;;;;19.76;100.00;100647.47;10581812;27;20150;-78
2024/01/07 05:48:44;;;;;;;26.80;4.25;;;;;;;19.74;100.00;100639.50;10606466;27;20039;-77
2024/01/07 05:54:07;;;;;;;19.23;3.38;;;;;;;19.80;100.00;100652.75;10550113;28;20051;-77
2024/01/07 05:59:31;;;;;;;22.70;3.92;;;;;;;19.90;100.00;100656.97;10576427;28;20392;-77
2024/01/07 06:04:53;;;;;;;22.98;3.47;;;;;;;20.15;100.00;100662.59;10577473;28;20040;-77
2024/01/07 06:10:16;;;;;;;25.55;4.38;;;;;;;20.23;100.00;100649.00;10559094;28;20114;-77
2024/01/07 06:15:40;;;;;;;20.33;3.70;;;;;;;20.28;100.00;100642.59;10571246;28;20055;-77
2024/01/07 06:21:03;;;;;;;17.85;3.85;;;;;;;20.61;100.00;100637.31;10576540;28;20039;-77
2024/01/07 06:26:26;;;;;;;22.85;5.50;;;;;;;20.94;99.02;100633.63;10562314;28;20046;-77
2024/01/07 06:31:50;;;;;;;30.40;5.10;;;;;;;21.46;94.54;100624.06;10590353;27;20058;-77
2024/01/07 06:37:12;;;;;;;22.50;4.30;;;;;;;21.55;92.89;100630.94;10560565;28;20047;-77
2024/01/07 06:42:34;;;;;;;23.40;5.10;;;;;;;21.79;92.53;100631.03;10574820;28;20180;-77
2024/01/07 06:47:59;;;;;;;30.95;4.82;;;;;;;21.80;92.42;100621.16;10564085;28;20043;-77
2024/01/07 06:53:21;;;;;;;28.23;4.50;;;;;;;21.71;95.85;100610.72;10573833;28;20048;-77
2024/01/07 06:58:44;;;;;;;21.95;4.53;;;;;;;22.15;94.76;100611.94;10576198;28;20056;-77
2024/01/07 07:04:08;;;;;;;33.10;5.95;;;;;;;22.58;90.97;100622.94;10575243;28;20057;-77
2024/01/07 07:09:31;;;;;;;23.85;5.72;;;;;;;22.36;96.44;100621.09;10530719;28;20040;-78
2024/01/07 07:14:53;;;;;;;30.65;5.20;;;;;;;22.29;99.83;100619.53;10563737;28;20052;-77
2024/01/07 07:20:17;;;;;;;20.88;4.85;;;;;;;21.96;100.00;100617.06;10553059;28;20040;-77
2024/01/07 07:25:39;;;;;;;30.27;7.28;;;;;;;21.36;100.00;100626.16;10551261;28;20044;-77
2024/01/07 07:31:02;;;;;;;26.10;4.38;;;;;;;21.02;100.00;100630.72;10571757;28;20422;-78
2024/01/07 07:36:25;;;;;;;27.42;5.45;;;;;;;20.97;100.00;100630.88;10553827;28;20058;-77
2024/01/07 07:41:49;;;;;;;34.60;5.35;;;;;;;20.87;100.00;100633.88;10567698;28;20353;-77
2024/01/07 07:47:12;;;;;;;21.45;4.63;;;;;;;22.60;100.00;100604.94;10567841;28;20047;-77
2024/01/07 07:52:36;;;;;;;25.65;6.00;;;;;;;23.91;91.20;100602.53;10590410;27;20150;-77
2024/01/07 07:57:59;;;;;;;53.13;8.88;;;;;;;22.94;100.00;100609.13;10592265;27;20092;-77
2024/01/07 08:03:21;;;;;;;46.13;7.35;;;;;;;22.85;100.00;100591.47;10588690;27;20041;-77
2024/01/07 08:08:45;;;;;;;40.63;8.15;;;;;;;23.76;79.32;100611.28;10601570;27;20048;-78
2024/01/07 08:14:09;;;;;;;56.00;7.60;;;;;;;23.69;74.07;100616.06;10600217;27;20047;-78
2024/01/07 08:19:31;;;;;;;50.63;5.97;;;;;;;22.81;68.99;100616.78;10600758;28;20039;-77
2024/01/07 08:24:55;;;;;;;63.50;8.00;;;;;;;23.51;63.75;100623.97;10582488;28;20046;-77
2024/01/07 08:30:17;;;;;;;51.65;6.78;;;;;;;24.63;51.93;100622.81;10605430;28;20047;-77
2024/01/07 08:35:40;;;;;;;40.70;5.82;;;;;;;24.67;48.50;100630.78;10586631;28;20383;-77
2024/01/07 08:41:04;;;;;;;64.53;7.60;;;;;;;23.26;48.57;100642.88;10597298;27;20043;-77
2024/01/07 08:46:27;;;;;;;74.10;8.00;;;;;;;23.65;46.96;100659.34;10599580;27;20055;-78
2024/01/07 08:51:49;;;;;;;46.30;6.63;;;;;;;25.55;40.67;100670.81;10641583;27;20057;-78
2024/01/07 08:57:13;;;;;;;52.03;7.15;;;;;;;25.54;37.29;100665.47;10598434;27;20048;-78
2024/01/07 09:02:35;;;;;;;59.92;7.07;;;;;;;26.30;35.90;100637.41;10640953;27;20051;-78
2024/01/07 09:07:58;;;;;;;51.42;6.50;;;;;;;27.26;33.23;100638.56;10615493;27;20047;-78
2024/01/07 09:13:22;;;;;;;70.47;8.02;;;;;;;26.83;33.57;100612.91;10617787;27;20483;-78
2024/01/07 09:18:45;;;;;;;63.30;7.72;;;;;;;26.92;32.71;100628.69;10624483;27;20054;-78
2024/01/07 09:24:08;;;;;;;63.35;8.13;;;;;;;27.93;31.60;100635.66;10645799;27;20530;-79
2024/01/07 09:29:32;;;;;;;69.75;9.07;;;;;;;28.39;31.21;100633.81;10621570;27;20530;-81
2024/01/07 09:34:54;;;;;;;95.20;9.52;;;;;;;29.04;31.43;100623.47;10620421;27;20125;-80
2024/01/07 09:40:19;;;;;;;87.70;10.68;;;;;;;28.64;31.23;100611.47;10651388;27;20203;-80
2024/01/07 09:45:48;;;;;;;63.85;6.85;;;;;;;27.40;31.28;100611.56;10638706;27;20106;-80
2024/01/07 09:51:12;;;;;;;91.97;10.20;;;;;;;26.65;31.85;100611.19;10614876;27;20043;-79
2024/01/07 09:56:41;;;;;;;93.80;10.38;;;;;;;27.11;30.98;100610.47;10579926;27;20053;-77
2024/01/07 10:02:05;;;;;;;91.47;10.23;;;;;;;26.82;32.50;100603.91;10581496;27;20055;-80
2024/01/07 10:07:28;;;;;;;97.00;11.23;;;;;;;25.90;34.29;100601.50;10586889;27;20096;-78
2024/01/07 10:12:52;;;;;;;89.68;12.00;;;;;;;26.26;33.89;100611.44;10584178;27;20403;-77
2024/01/07 10:18:17;;;;;;;97.25;11.93;;;;;;;27.36;33.06;100605.44;10599471;27;20043;-78
2024/01/07 10:23:39;;;;;;;86.75;10.50;;;;;;;27.26;32.31;100600.59;10603636;27;20411;-79
2024/01/07 10:29:02;;;;;;;123.93;12.77;;;;;;;26.22;33.44;100588.16;10605347;27;20051;-79
2024/01/07 10:34:27;;;;;;;97.57;10.13;;;;;;;25.06;35.04;100572.28;10614226;27;20187;-78
2024/01/07 10:39:50;;;;;;;112.35;13.60;;;;;;;24.82;36.30;100568.84;10573785;27;20057;-78
2024/01/07 10:45:14;;;;;;;100.47;10.43;;;;;;;25.05;36.68;100564.22;10575041;27;20398;-78
2024/01/07 10:50:39;;;;;;;107.53;12.65;;;;;;;24.63;38.65;100557.13;10627850;27;20047;-77
2024/01/07 10:56:06;;;;;;;111.55;10.90;;;;;;;24.34;39.51;100552.19;10634643;27;20099;-78
2024/01/07 11:01:29;;;;;;;120.63;12.15;;;;;;;24.26;39.84;100549.81;10613838;27;20055;-78
2024/01/07 11:07:00;;;;;;;99.53;10.55;;;;;;;24.32;40.03;100543.25;10612081;27;20039;-78
2024/01/07 11:12:23;;;;;;;93.85;10.43;;;;;;;25.08;37.60;100543.31;10603740;27;20134;-77
2024/01/07 11:17:46;;;;;;;65.80;7.47;;;;;;;25.46;34.63;100535.22;10606194;27;20058;-77
2024/01/07 11:23:30;;;;;;;83.05;10.15;;;;;;;25.01;35.25;100520.25;10602342;27;20074;-77
2024/01/07 11:28:54;;;;;;;58.30;8.18;;;;;;;25.29;35.79;100520.69;10609784;27;20051;-78
2024/01/07 11:34:51;;;;;;;56.85;8.35;;;;;;;25.06;35.27;100510.13;10596459;27;20039;-77
2024/01/07 11:40:16;;;;;;;69.72;8.95;;;;;;;23.42;37.74;100504.84;10612864;27;20111;-78
2024/01/07 11:45:38;;;;;;;49.08;5.40;;;;;;;22.73;37.98;100491.47;10629765;27;20070;-80
2024/01/07 11:51:01;;;;;;;82.18;9.18;;;;;;;22.60;38.02;100499.09;10631421;27;20055;-78
2024/01/07 11:56:25;;;;;;;71.78;9.55;;;;;;;23.35;38.08;100487.16;10601234;27;20042;-78
2024/01/07 12:01:48;;;;;;;60.88;6.70;;;;;;;23.76;37.63;100509.69;10589986;27;20096;-78
2024/01/07 12:07:14;;;;;;;73.82;9.30;;;;;;;23.73;37.65;100504.44;10592367;27;20043;-78
2024/01/07 12:12:38;;;;;;;81.20;10.48;;;;;;;23.69;38.27;100501.94;10586296;27;20043;-78
2024/01/07 12:18:01;;;;;;;70.22;9.88;;;;;;;23.07;40.19;100474.88;10587090;27;20078;-79
2024/01/07 12:23:24;;;;;;;81.30;9.85;;;;;;;22.55;41.48;100432.03;10586110;27;20043;-79
2024/01/07 12:28:54;;;;;;;95.07;12.25;;;;;;;22.34;45.26;100402.38;10612787;27;20058;-78
2024/01/07 12:34:17;;;;;;;79.13;13.02;;;;;;;21.78;49.04;100398.16;10569272;27;20053;-76
2024/01/07 12:39:39;;;;;;;97.47;10.68;;;;;;;21.65;52.05;100447.91;10597572;27;20096;-79
2024/01/07 12:45:04;;;;;;;80.95;10.77;;;;;;;21.80;52.47;100462.59;10586079;27;20094;-76
2024/01/07 12:50:27;;;;;;;72.40;10.48;;;;;;;21.83;52.71;100490.25;10588778;27;20050;-78
2024/01/07 12:55:54;;;;;;;78.18;9.10;;;;;;;21.98;51.62;100520.25;10569358;28;20130;-80
2024/01/07 13:01:21;;;;;;;72.25;8.38;;;;;;;22.30;50.58;100505.66;10583638;28;20158;-81
2024/01/07 13:06:44;;;;;;;86.57;10.30;;;;;;;21.97;50.73;100495.19;10607255;28;20078;-79
2024/01/07 13:12:06;;;;;;;97.93;10.07;;;;;;;21.72;52.49;100488.88;10581104;28;20057;-76
2024/01/07 13:17:32;;;;;;;76.50;10.57;;;;;;;21.59;52.80;100496.47;10598976;28;20529;-78
2024/01/07 13:22:55;;;;;;;85.53;10.23;;;;;;;21.37;54.37;100539.28;10596912;28;20058;-85
2024/01/07 13:28:19;;;;;;;91.05;10.98;;;;;;;21.40;55.69;100532.91;10599142;27;20123;-79
2024/01/07 13:33:44;;;;;;;91.78;11.63;;;;;;;21.10;59.77;100564.28;10605949;27;20043;-81
2024/01/07 13:39:07;;;;;;;113.43;13.27;;;;;;;19.49;100.00;100601.69;10607632;27;20509;-79
2024/01/07 13:44:30;;;;;;;81.55;10.48;;;;;;;18.61;100.00;100605.38;10608896;27;20071;-78
2024/01/07 13:49:55;;;;;;;66.35;9.40;;;;;;;17.58;100.00;100578.69;10586478;27;20238;-78
2024/01/07 13:55:18;;;;;;;87.00;14.93;;;;;;;17.04;100.00;100540.38;10608349;27;20051;-77
2024/01/07 14:00:41;;;;;;;65.97;10.93;;;;;;;17.01;100.00;100559.06;10605832;27;20050;-76
2024/01/07 14:06:05;;;;;;;60.70;9.23;;;;;;;16.96;100.00;100571.59;10602666;27;20051;-75
2024/01/07 14:11:28;;;;;;;41.40;7.07;;;;;;;16.88;100.00;100566.38;10588104;27;20127;-76
2024/01/07 14:16:50;;;;;;;44.33;9.57;;;;;;;16.77;100.00;100580.75;10602674;27;20051;-76
2024/01/07 14:22:16;;;;;;;56.72;9.88;;;;;;;16.77;100.00;100588.75;10589893;27;20055;-75
2024/01/07 14:27:38;;;;;;;53.22;9.55;;;;;;;16.87;100.00;100598.41;10597347;27;20062;-75
2024/01/07 14:33:01;;;;;;;45.55;7.18;;;;;;;16.96;100.00;100604.50;10580200;27;20103;-77
2024/01/07 14:38:26;;;;;;;57.22;6.82;;;;;;;17.09;100.00;100595.41;10573404;27;20059;-76
2024/01/07 14:43:48;;;;;;;44.63;6.38;;;;;;;17.11;100.00;100582.94;10585190;27;20372;-76
2024/01/07 14:49:11;;;;;;;48.03;7.28;;;;;;;17.16;100.00;100593.56;10572293;27;20100;-78
2024/01/07 14:54:37;;;;;;;39.35;5.85;;;;;;;17.20;100.00;100584.59;10579127;27;20044;-75
2024/01/07 14:59:59;;;;;;;49.00;6.00;;;;;;;17.19;100.00;100589.97;10571860;27;20116;-75
2024/01/07 15:05:22;;;;;;;31.58;4.22;;;;;;;17.27;100.00;100588.94;10560645;27;20085;-77
2024/01/07 15:10:46;;;;;;;24.48;4.15;;;;;;;17.20;100.00;100581.06;10596096;27;20142;-78
2024/01/07 15:16:08;;;;;;;25.92;4.25;;;;;;;17.18;100.00;100573.06;10589088;27;20051;-75
2024/01/07 15:21:31;;;;;;;31.88;5.28;;;;;;;17.25;100.00;100571.19;10584341;27;20043;-74
2024/01/07 15:26:55;;;;;;;30.48;3.78;;;;;;;17.15;100.00;100589.13;10568595;27;20051;-74
2024/01/07 15:32:17;;;;;;;26.30;3.63;;;;;;;17.11;100.00;100601.63;10568266;27;20454;-76
2024/01/07 15:37:39;;;;;;;32.20;4.32;;;;;;;17.29;100.00;100600.47;10602065;27;20043;-74
2024/01/07 15:43:03;;;;;;;32.67;4.03;;;;;;;17.23;100.00;100615.69;10582419;27;20482;-75
2024/01/07 15:48:26;;;;;;;23.92;3.67;;;;;;;17.31;100.00;100613.81;10600404;27;20043;-76
2024/01/07 15:53:48;;;;;;;27.88;4.68;;;;;;;17.19;100.00;100619.31;10559919;27;20048;-78
2024/01/07 15:59:12;;;;;;;30.10;4.53;;;;;;;17.29;100.00;100631.59;10580022;27;20051;-75
2024/01/07 16:04:35;;;;;;;28.17;4.47;;;;;;;17.30;100.00;100636.03;10577622;27;20047;-74
2024/01/07 16:09:57;;;;;;;24.13;4.30;;;;;;;17.34;100.00;100651.97;10574728;27;20073;-74
2024/01/07 16:15:22;;;;;;;24.65;4.28;;;;;;;17.29;100.00;100651.16;10570484;27;20062;-78
2024/01/07 16:20:44;;;;;;;24.63;3.95;;;;;;;17.23;100.00;100635.25;10609458;27;20046;-76
2024/01/07 16:26:06;;;;;;;20.00;3.45;;;;;;;17.09;100.00;100626.53;10585276;28;20050;-77
2024/01/07 16:31:30;;;;;;;23.00;3.75;;;;;;;17.06;100.00;100621.25;10572888;28;20055;-76
2024/01/07 16:36:53;;;;;;;22.95;3.47;;;;;;;17.19;100.00;100630.00;10572364;28;20104;-77
2024/01/07 16:42:25;;;;;;;22.20;3.53;;;;;;;17.20;100.00;100627.28;10563025;28;20130;-77
2024/01/07 16:47:50;;;;;;;25.23;4.10;;;;;;;17.22;100.00;100643.25;10576393;28;20035;-77
2024/01/07 16:53:13;;;;;;;17.17;2.90;;;;;;;17.16;100.00;100654.91;10563005;28;20051;-77
2024/01/07 16:58:35;;;;;;;22.95;4.78;;;;;;;17.22;100.00;100643.25;10563982;28;20123;-76
2024/01/07 17:03:59;;;;;;;29.80;4.47;;;;;;;17.24;100.00;100655.69;10592290;27;20051;-77
2024/01/07 17:09:23;;;;;;;20.17;3.35;;;;;;;17.37;100.00;100654.63;10573379;27;20091;-76
2024/01/07 17:14:48;;;;;;;26.55;3.92;;;;;;;17.34;100.00;100667.09;10566239;27;20046;-75
2024/01/07 17:20:13;;;;;;;22.38;4.22;;;;;;;17.32;100.00;100672.50;10570801;27;20054;-76
2024/01/07 17:25:35;;;;;;;16.88;3.85;;;;;;;17.41;100.00;100677.69;10575604;27;20040;-75
2024/01/07 17:30:58;;;;;;;23.60;3.53;;;;;;;17.59;100.00;100710.38;10607326;27;20036;-76
2024/01/07 17:36:22;;;;;;;22.83;4.22;;;;;;;17.57;100.00;100717.53;10611048;27;20101;-76
2024/01/07 17:41:44;;;;;;;17.45;3.25;;;;;;;17.53;100.00;100722.88;10580848;27;20135;-76
2024/01/07 17:47:07;;;;;;;17.88;3.30;;;;;;;17.40;100.00;100713.28;10593284;27;20047;-76
2024/01/07 17:52:31;;;;;;;20.15;3.42;;;;;;;17.27;100.00;100711.66;10569303;27;20543;-75
2024/01/07 17:57:54;;;;;;;18.25;2.42;;;;;;;17.03;100.00;100709.31;10595439;27;20491;-77
2024/01/07 18:03:16;;;;;;;21.20;3.08;;;;;;;16.95;100.00;100713.84;10598643;27;20035;-77
2024/01/07 18:08:40;;;;;;;14.75;2.45;;;;;;;16.93;100.00;100729.00;10606245;27;20047;-78
2024/01/07 18:14:03;;;;;;;19.63;2.88;;;;;;;16.97;100.00;100738.72;10590478;27;20050;-78
2024/01/07 18:19:25;;;;;;;22.70;3.65;;;;;;;16.96;100.00;100729.81;10620898;27;20099;-79
2024/01/07 18:24:49;;;;;;;13.85;3.13;;;;;;;17.18;100.00;100727.81;10604657;27;20043;-78
2024/01/07 18:30:13;;;;;;;9.95;2.67;;;;;;;16.99;100.00;100715.59;10585431;27;20048;-77
2024/01/07 18:35:35;;;;;;;18.08;3.28;;;;;;;16.91;100.00;100715.66;10584512;27;20035;-78
2024/01/07 18:40:59;;;;;;;20.45;3.65;;;;;;;16.89;100.00;100711.25;10594119;27;20107;-78
2024/01/07 18:46:22;;;;;;;16.42;2.83;;;;;;;16.88;100.00;100714.81;10553684;28;20564;-77
2024/01/07 18:51:46;;;;;;;15.52;3.15;;;;;;;16.89;100.00;100721.91;10605739;27;20395;-76
2024/01/07 18:57:12;;;;;;;16.05;2.65;;;;;;;16.79;100.00;100729.13;10578116;27;20113;-76
2024/01/07 19:02:34;;;;;;;7.90;1.60;;;;;;;16.80;100.00;100724.69;10576376;27;20043;-75
2024/01/07 19:07:57;;;;;;;21.33;2.83;;;;;;;16.62;100.00;100731.94;10616694;27;20051;-75
2024/01/07 19:13:22;;;;;;;18.67;3.33;;;;;;;16.83;100.00;100740.63;10592224;27;20061;-75
2024/01/07 19:18:44;;;;;;;11.32;2.08;;;;;;;16.78;100.00;100746.03;10615000;27;20444;-75
2024/01/07 19:24:07;;;;;;;15.23;2.20;;;;;;;16.73;100.00;100754.09;10600109;27;20050;-75
2024/01/07 19:29:31;;;;;;;9.50;2.28;;;;;;;16.66;100.00;100746.16;10602303;27;20055;-76
2024/01/07 19:34:54;;;;;;;15.25;2.60;;;;;;;16.76;100.00;100749.59;10589898;27;20051;-75
2024/01/07 19:40:17;;;;;;;13.88;2.25;;;;;;;16.59;100.00;100753.28;10577243;27;20043;-75
2024/01/07 19:45:42;;;;;;;8.95;2.40;;;;;;;16.62;100.00;100747.06;10578575;27;20125;-74
2024/01/07 19:51:05;;;;;;;10.07;1.83;;;;;;;16.62;100.00;100763.06;10600726;27;20503;-75
2024/01/07 19:56:27;;;;;;;15.80;2.75;;;;;;;16.79;100.00;100760.25;10601114;27;20106;-75
2024/01/07 20:01:51;;;;;;;13.75;2.35;;;;;;;16.88;100.00;100777.03;10613999;27;20070;-74
2024/01/07 20:07:14;;;;;;;11.77;2.10;;;;;;;16.81;100.00;100785.97;10604516;27;20075;-75
2024/01/07 20:12:36;;;;;;;13.63;2.33;;;;;;;16.94;100.00;100792.06;10610244;27;20372;-75
2024/01/07 20:18:01;;;;;;;14.95;2.20;;;;;;;16.93;100.00;100804.56;10575804;27;20495;-75
2024/01/07 20:23:23;;;;;;;18.08;2.28;;;;;;;16.79;100.00;100808.25;10603572;27;20534;-76
2024/01/07 20:28:46;;;;;;;12.23;2.50;;;;;;;16.69;100.00;100810.97;10598093;27;20043;-76
2024/01/07 20:34:10;;;;;;;9.80;2.00;;;;;;;16.72;100.00;100805.63;10595851;27;20407;-76
2024/01/07 20:39:32;;;;;;;18.98;2.55;;;;;;;16.87;100.00;100807.25;10606109;27;20057;-75
2024/01/07 20:44:56;;;;;;;16.88;2.47;;;;;;;16.78;100.00;100810.03;10598676;27;20499;-76
2024/01/07 20:50:20;;;;;;;24.60;2.67;;;;;;;16.60;100.00;100816.41;10588288;27;20055;-75
2024/01/07 20:55:43;;;;;;;15.80;3.72;;;;;;;16.68;100.00;100810.97;10587988;27;20100;-76
2024/01/07 21:01:06;;;;;;;12.85;2.95;;;;;;;16.64;100.00;100809.25;10573406;27;20560;-76
2024/01/07 21:06:30;;;;;;;19.40;3.30;;;;;;;16.58;100.00;100811.94;10601271;27;20050;-76
2024/01/07 21:11:53;;;;;;;14.85;2.80;;;;;;;16.59;100.00;100809.25;10606473;27;20091;-75
2024/01/07 21:17:15;;;;;;;15.77;2.72;;;;;;;16.84;100.00;100823.28;10607634;27;20040;-75
2024/01/07 21:22:39;;;;;;;15.48;2.53;;;;;;;17.10;100.00;100831.94;10613629;27;20055;-75
2024/01/07 21:28:03;;;;;;;15.68;3.17;;;;;;;16.95;100.00;100823.19;10600889;27;20055;-76
2024/01/07 21:33:26;;;;;;;13.63;2.80;;;;;;;16.79;100.00;100827.78;10610469;27;20088;-75
2024/01/07 21:38:50;;;;;;;14.93;2.75;;;;;;;16.95;100.00;100825.84;10590200;27;20573;-75
2024/01/07 21:44:13;;;;;;;12.45;2.25;;;;;;;17.13;100.00;100820.34;10595102;27;20049;-76
2024/01/07 21:49:36;;;;;;;15.82;2.70;;;;;;;17.08;100.00;100787.47;10612432;27;20384;-76
2024/01/07 21:55:00;;;;;;;29.00;10.68;;;;;;;17.24;100.00;100822.91;10651579;27;20043;-76
2024/01/07 22:00:22;;;;;;;24.67;2.55;;;;;;;16.46;100.00;100799.59;10628630;27;20432;-75
2024/01/07 22:05:47;;;;;;;20.67;2.80;;;;;;;15.61;100.00;100816.09;10629022;27;20050;-76
2024/01/07 22:11:14;;;;;;;17.15;2.42;;;;;;;15.10;100.00;100817.97;10623415;27;20669;-75
2024/01/07 22:16:37;;;;;;;18.27;3.03;;;;;;;14.96;100.00;100830.44;10619755;27;20115;-75
2024/01/07 22:21:59;;;;;;;18.38;3.63;;;;;;;14.96;100.00;100825.09;10575112;27;20051;-75
2024/01/07 22:27:23;;;;;;;18.55;4.38;;;;;;;15.09;100.00;100823.31;10605543;27;20705;-75
2024/01/07 22:32:47;;;;;;;22.67;4.30;;;;;;;15.03;100.00;100818.00;10581595;27;20042;-75
2024/01/07 22:38:09;;;;;;;21.33;4.07;;;;;;;14.93;100.00;100808.25;10646850;27;20047;-75
2024/01/07 22:43:33;;;;;;;16.60;3.15;;;;;;;14.93;100.00;100811.81;10618806;27;20049;-75
2024/01/07 22:48:55;;;;;;;18.23;2.88;;;;;;;14.93;100.00;100809.16;10646028;27;20498;-76
2024/01/07 22:54:18;;;;;;;23.20;3.10;;;;;;;15.21;100.00;100807.31;10617566;27;20058;-75
2024/01/07 22:59:41;;;;;;;30.25;3.30;;;;;;;15.28;100.00;100800.22;10616906;27;20047;-76
2024/01/07 23:05:05;;;;;;;20.90;3.75;;;;;;;15.18;100.00;100802.00;10603440;27;20380;-75
2024/01/07 23:10:27;;;;;;;17.63;2.97;;;;;;;15.20;100.00;100780.72;10602344;27;20100;-76
2024/01/07 23:15:51;;;;;;;21.45;2.50;;;;;;;15.71;100.00;100772.56;10605822;27;20050;-76
2024/01/07 23:21:14;;;;;;;12.30;1.90;;;;;;;16.28;100.00;100759.75;10593055;27;20055;-75
2024/01/07 23:26:36;;;;;;;16.88;2.20;;;;;;;16.56;100.00;100782.63;10589852;27;20070;-75
2024/01/07 23:32:00;;;;;;;18.23;2.95;;;;;;;16.54;100.00;100780.88;10598186;27;20491;-76
2024/01/07 23:37:24;;;;;;;17.13;2.97;;;;;;;16.36;100.00;100779.22;10605077;27;20058;-75
2024/01/07 23:42:48;;;;;;;24.27;2.92;;;;;;;16.45;100.00;100780.94;10605025;27;20051;-75
2024/01/07 23:48:12;;;;;;;20.45;2.83;;;;;;;16.50;100.00;100782.66;10605488;27;20046;-75
2024/01/07 23:53:34;;;;;;;15.85;2.40;;;;;;;16.45;100.00;100786.28;10590441;27;20407;-75
2024/01/07 23:58:57;;;;;;;20.42;2.80;;;;;;;16.46;100.00;100782.72;10610585;27;20170;-75
